createdAt,value
2018-05-21T00:00:31.070Z,14.00
2018-05-21T00:02:59.407Z,14.00
2018-05-21T00:05:26.995Z,14.00
2018-05-21T00:07:54.548Z,14.00
2018-05-21T00:10:22.114Z,14.00
2018-05-21T00:12:49.671Z,13.90
2018-05-21T00:15:17.261Z,13.90
2018-05-21T00:17:44.846Z,13.90
2018-05-21T00:20:13.192Z,13.90
2018-05-21T00:22:40.763Z,13.90
2018-05-21T00:25:08.349Z,13.90
2018-05-21T00:27:36.686Z,13.90
2018-05-21T00:30:04.277Z,13.90
2018-05-21T00:32:31.831Z,13.90
2018-05-21T00:35:00.185Z,13.80
2018-05-21T00:37:27.744Z,13.80
2018-05-21T00:39:55.306Z,13.80
2018-05-21T00:42:22.856Z,13.80
2018-05-21T00:44:50.423Z,13.80
2018-05-21T00:47:18.738Z,13.70
2018-05-21T00:49:47.100Z,13.70
2018-05-21T00:52:14.694Z,13.70
2018-05-21T00:57:48.066Z,13.80
2018-05-21T01:00:15.713Z,13.80
2018-05-21T01:02:43.301Z,13.90
2018-05-21T01:05:10.865Z,13.90
2018-05-21T01:07:39.171Z,13.80
2018-05-21T01:10:06.771Z,13.80
2018-05-21T01:12:34.323Z,13.80
2018-05-21T01:15:01.896Z,13.80
2018-05-21T01:17:29.481Z,13.90
2018-05-21T01:19:57.840Z,13.90
2018-05-21T01:22:25.429Z,13.90
2018-05-21T01:24:53.766Z,13.80
2018-05-21T01:27:22.114Z,13.90
2018-05-21T01:29:49.680Z,13.80
2018-05-21T01:32:17.292Z,13.90
2018-05-21T01:34:44.822Z,13.90
2018-05-21T01:37:13.155Z,14.00
2018-05-21T01:39:40.690Z,14.00
2018-05-21T01:42:09.032Z,13.90
2018-05-21T01:44:36.606Z,13.90
2018-05-21T01:47:04.970Z,13.70
2018-05-21T01:49:32.531Z,13.70
2018-05-21T01:52:00.099Z,13.80
2018-05-21T01:54:27.659Z,13.70
2018-05-21T01:56:56.000Z,13.70
2018-05-21T01:59:23.588Z,13.70
2018-05-21T02:01:51.190Z,13.80
2018-05-21T02:04:19.514Z,13.90
2018-05-21T02:06:47.104Z,13.90
2018-05-21T02:09:14.656Z,13.90
2018-05-21T02:11:42.239Z,14.00
2018-05-21T02:14:09.783Z,14.00
2018-05-21T02:16:37.398Z,14.10
2018-05-21T02:19:04.943Z,14.10
2018-05-21T02:21:32.542Z,14.20
2018-05-21T02:24:00.099Z,14.10
2018-05-21T02:26:27.671Z,14.10
2018-05-21T02:28:55.216Z,14.10
2018-05-21T02:31:22.796Z,14.00
2018-05-21T02:33:50.344Z,14.00
2018-05-21T02:36:18.707Z,13.90
2018-05-21T02:38:46.293Z,13.90
2018-05-21T02:41:13.839Z,13.80
2018-05-21T02:43:41.408Z,13.70
2018-05-21T02:46:09.024Z,13.60
2018-05-21T02:48:36.604Z,13.50
2018-05-21T02:51:04.170Z,13.40
2018-05-21T02:53:31.773Z,13.40
2018-05-21T02:55:59.318Z,13.40
2018-05-21T02:58:26.888Z,13.50
2018-05-21T03:00:54.435Z,13.60
2018-05-21T03:03:22.007Z,13.70
2018-05-21T03:05:49.552Z,13.60
2018-05-21T03:08:17.190Z,13.60
2018-05-21T03:10:44.744Z,13.60
2018-05-21T03:13:12.322Z,13.60
2018-05-21T03:15:39.893Z,13.60
2018-05-21T03:18:08.254Z,13.60
2018-05-21T03:20:35.829Z,13.50
2018-05-21T03:23:03.412Z,13.50
2018-05-21T03:25:31.739Z,13.50
2018-05-21T03:27:59.340Z,13.40
2018-05-21T03:30:26.887Z,13.40
2018-05-21T03:32:54.454Z,13.40
2018-05-21T03:35:22.050Z,13.50
2018-05-21T03:37:50.417Z,13.20
2018-05-21T03:40:18.764Z,13.10
2018-05-21T03:42:46.357Z,13.10
2018-05-21T03:45:14.705Z,13.20
2018-05-21T03:47:42.318Z,13.20
2018-05-21T03:50:09.897Z,13.30
2018-05-21T03:52:37.485Z,13.30
2018-05-21T03:55:05.038Z,13.30
2018-05-21T03:57:32.627Z,13.30
2018-05-21T04:00:12.766Z,13.30
2018-05-21T04:02:52.033Z,13.30
2018-05-21T04:05:20.347Z,13.40
2018-05-21T04:07:47.942Z,13.40
2018-05-21T04:10:15.511Z,13.50
2018-05-21T04:12:43.080Z,13.60
2018-05-21T04:15:10.640Z,13.70
2018-05-21T04:17:38.998Z,13.90
2018-05-21T04:20:06.557Z,13.80
2018-05-21T04:22:34.179Z,14.00
2018-05-21T04:25:01.721Z,14.10
2018-05-21T04:27:29.295Z,14.10
2018-05-21T04:29:56.862Z,14.20
2018-05-21T04:32:24.406Z,14.40
2018-05-21T04:34:51.998Z,14.50
2018-05-21T04:37:20.346Z,14.60
2018-05-21T04:39:47.927Z,14.60
2018-05-21T04:42:15.506Z,14.60
2018-05-21T04:44:43.110Z,14.70
2018-05-21T04:47:10.693Z,14.70
2018-05-21T04:49:38.258Z,14.70
2018-05-21T04:52:06.858Z,14.70
2018-05-21T04:54:34.451Z,14.70
2018-05-21T04:57:02.855Z,14.80
2018-05-21T04:59:30.424Z,14.80
2018-05-21T05:01:57.984Z,14.80
2018-05-21T05:04:25.580Z,14.80
2018-05-21T05:06:53.141Z,14.80
2018-05-21T05:09:20.755Z,14.90
2018-05-21T05:11:49.068Z,15.00
2018-05-21T05:14:16.621Z,15.00
2018-05-21T05:16:44.186Z,15.00
2018-05-21T05:19:11.762Z,15.10
2018-05-21T05:21:39.312Z,15.10
2018-05-21T05:24:06.907Z,15.10
2018-05-21T05:26:35.271Z,15.30
2018-05-21T05:29:02.850Z,15.30
2018-05-21T05:31:31.204Z,15.40
2018-05-21T05:33:58.776Z,15.40
2018-05-21T05:36:27.318Z,15.50
2018-05-21T05:38:54.916Z,15.60
2018-05-21T05:41:22.481Z,15.70
2018-05-21T05:43:50.047Z,15.80
2018-05-21T05:46:18.389Z,16.00
2018-05-21T05:48:45.992Z,15.90
2018-05-21T05:51:13.515Z,16.00
2018-05-21T05:53:41.109Z,16.10
2018-05-21T05:56:09.453Z,16.20
2018-05-21T05:58:37.794Z,16.30
2018-05-21T06:01:05.378Z,16.30
2018-05-21T06:03:33.763Z,16.50
2018-05-21T06:06:01.323Z,16.50
2018-05-21T06:08:28.890Z,16.50
2018-05-21T06:10:56.455Z,16.50
2018-05-21T06:13:24.017Z,16.60
2018-05-21T06:15:51.610Z,16.80
2018-05-21T06:18:19.921Z,16.90
2018-05-21T06:20:47.486Z,16.90
2018-05-21T06:23:15.069Z,17.00
2018-05-21T06:25:42.680Z,17.10
2018-05-21T06:28:10.217Z,17.20
2018-05-21T06:30:38.576Z,17.30
2018-05-21T06:33:06.134Z,17.30
2018-05-21T06:35:33.704Z,17.40
2018-05-21T06:38:01.272Z,17.50
2018-05-21T06:40:29.611Z,17.70
2018-05-21T06:42:57.190Z,17.70
2018-05-21T06:45:24.768Z,17.90
2018-05-21T06:47:53.118Z,18.10
2018-05-21T06:50:20.754Z,18.10
2018-05-21T06:52:48.347Z,18.10
2018-05-21T06:55:15.926Z,18.20
2018-05-21T06:57:43.462Z,18.30
2018-05-21T07:00:11.867Z,18.40
2018-05-21T07:02:40.219Z,18.50
2018-05-21T07:05:07.805Z,18.50
2018-05-21T07:07:36.143Z,18.70
2018-05-21T07:10:03.728Z,18.70
2018-05-21T07:12:31.259Z,18.80
2018-05-21T07:14:58.844Z,19.00
2018-05-21T07:17:26.462Z,19.10
2018-05-21T07:19:54.066Z,19.30
2018-05-21T07:22:21.615Z,19.40
2018-05-21T07:24:49.158Z,19.50
2018-05-21T07:27:16.731Z,19.50
2018-05-21T07:29:45.056Z,19.60
2018-05-21T07:32:13.423Z,19.70
2018-05-21T07:34:41.725Z,19.60
2018-05-21T07:37:09.310Z,19.60
2018-05-21T07:39:36.884Z,19.90
2018-05-21T07:42:04.468Z,20.00
2018-05-21T07:44:32.033Z,19.90
2018-05-21T07:47:00.379Z,20.10
2018-05-21T07:49:28.676Z,20.10
2018-05-21T07:51:56.252Z,20.00
2018-05-21T07:54:23.821Z,20.20
2018-05-21T07:56:52.155Z,20.40
2018-05-21T07:59:19.701Z,20.40
2018-05-21T08:01:48.279Z,20.60
2018-05-21T08:04:15.838Z,20.80
2018-05-21T08:06:43.425Z,21.00
2018-05-21T08:09:10.995Z,21.10
2018-05-21T08:11:38.558Z,21.10
2018-05-21T08:14:06.117Z,21.10
2018-05-21T08:16:33.688Z,21.10
2018-05-21T08:19:02.005Z,21.10
2018-05-21T08:21:29.590Z,21.10
2018-05-21T08:23:57.155Z,21.20
2018-05-21T08:26:24.750Z,21.30
2018-05-21T08:28:53.094Z,21.50
2018-05-21T08:31:21.655Z,21.50
2018-05-21T08:33:49.230Z,21.50
2018-05-21T08:36:16.811Z,21.30
2018-05-21T08:38:45.123Z,21.40
2018-05-21T08:41:12.709Z,21.30
2018-05-21T08:43:40.243Z,21.50
2018-05-21T08:46:07.832Z,21.60
2018-05-21T08:48:35.414Z,21.90
2018-05-21T08:51:02.969Z,22.10
2018-05-21T08:53:30.510Z,22.40
2018-05-21T08:55:58.081Z,22.50
2018-05-21T08:58:25.627Z,22.50
2018-05-21T09:00:53.210Z,22.60
2018-05-21T09:03:20.807Z,22.60
2018-05-21T09:05:48.360Z,22.40
2018-05-21T09:08:15.934Z,22.60
2018-05-21T09:10:44.257Z,22.70
2018-05-21T09:13:11.829Z,22.70
2018-05-21T09:15:40.166Z,22.80
2018-05-21T09:18:07.739Z,22.80
2018-05-21T09:20:35.313Z,22.90
2018-05-21T09:23:02.947Z,23.10
2018-05-21T09:25:30.521Z,23.20
2018-05-21T09:27:58.105Z,23.50
2018-05-21T09:30:25.669Z,23.70
2018-05-21T09:32:53.264Z,23.90
2018-05-21T09:35:20.824Z,24.00
2018-05-21T09:37:49.189Z,23.30
2018-05-21T09:40:16.735Z,23.30
2018-05-21T09:42:44.308Z,23.10
2018-05-21T09:45:11.859Z,23.20
2018-05-21T09:47:39.435Z,23.10
2018-05-21T09:50:07.773Z,23.40
2018-05-21T09:52:35.362Z,23.40
2018-05-21T09:55:02.952Z,23.50
2018-05-21T09:57:30.517Z,23.70
2018-05-21T09:59:58.063Z,23.90
2018-05-21T10:02:26.419Z,24.10
2018-05-21T10:04:53.989Z,24.00
2018-05-21T10:07:21.563Z,23.80
2018-05-21T10:09:49.907Z,23.40
2018-05-21T10:12:17.518Z,23.40
2018-05-21T10:14:45.068Z,23.40
2018-05-21T10:17:12.652Z,23.60
2018-05-21T10:19:40.221Z,23.90
2018-05-21T10:22:07.823Z,24.10
2018-05-21T10:24:35.376Z,24.50
2018-05-21T10:27:02.975Z,24.60
2018-05-21T10:29:30.517Z,24.70
2018-05-21T10:31:58.814Z,25.00
2018-05-21T10:34:26.410Z,25.00
2018-05-21T10:36:53.951Z,25.00
2018-05-21T10:39:21.541Z,25.00
2018-05-21T10:41:49.090Z,25.20
2018-05-21T10:44:17.430Z,25.00
2018-05-21T10:46:45.048Z,25.00
2018-05-21T10:49:13.651Z,25.00
2018-05-21T10:51:41.227Z,24.90
2018-05-21T10:54:08.878Z,25.00
2018-05-21T10:56:37.157Z,25.30
2018-05-21T10:59:04.733Z,25.30
2018-05-21T11:01:32.312Z,25.20
2018-05-21T11:03:59.917Z,25.20
2018-05-21T11:06:27.454Z,25.30
2018-05-21T11:08:55.039Z,25.30
2018-05-21T11:11:23.358Z,25.60
2018-05-21T11:13:50.931Z,25.60
2018-05-21T11:16:18.516Z,25.80
2018-05-21T11:18:46.848Z,25.60
2018-05-21T11:21:14.405Z,25.60
2018-05-21T11:23:42.070Z,25.60
2018-05-21T11:26:09.654Z,25.60
2018-05-21T11:28:37.232Z,25.50
2018-05-21T11:31:05.596Z,25.80
2018-05-21T11:33:33.191Z,25.80
2018-05-21T11:36:00.749Z,25.80
2018-05-21T11:38:28.306Z,26.00
2018-05-21T11:40:59.388Z,26.20
2018-05-21T11:43:26.995Z,26.30
2018-05-21T11:45:54.534Z,26.50
2018-05-21T11:48:22.091Z,26.50
2018-05-21T11:50:49.647Z,26.30
2018-05-21T11:53:17.226Z,26.10
2018-05-21T11:55:44.842Z,26.00
2018-05-21T11:58:13.331Z,26.10
2018-05-21T12:00:40.909Z,26.10
2018-05-21T12:03:08.463Z,26.10
2018-05-21T12:05:36.051Z,26.30
2018-05-21T12:08:03.618Z,26.60
2018-05-21T12:10:32.207Z,26.70
2018-05-21T12:12:59.770Z,26.70
2018-05-21T12:15:27.331Z,26.90
2018-05-21T12:17:54.881Z,26.80
2018-05-21T12:20:22.431Z,26.90
2018-05-21T12:22:50.000Z,26.90
2018-05-21T12:25:17.607Z,27.10
2018-05-21T12:27:45.159Z,27.30
2018-05-21T12:30:12.730Z,27.40
2018-05-21T12:32:40.295Z,27.50
2018-05-21T12:35:07.877Z,27.80
2018-05-21T12:37:37.362Z,27.80
2018-05-21T12:40:04.963Z,27.90
2018-05-21T12:42:32.524Z,27.90
2018-05-21T12:45:00.137Z,28.00
2018-05-21T12:47:27.699Z,28.00
2018-05-21T12:49:55.291Z,28.10
2018-05-21T12:52:23.634Z,28.20
2018-05-21T12:54:51.240Z,28.20
2018-05-21T12:57:18.809Z,28.20
2018-05-21T12:59:47.390Z,28.40
2018-05-21T13:02:14.972Z,28.30
2018-05-21T13:04:43.322Z,27.90
2018-05-21T13:07:10.874Z,27.90
2018-05-21T13:09:38.459Z,27.70
2018-05-21T13:12:06.030Z,27.80
2018-05-21T13:14:34.383Z,27.90
2018-05-21T13:17:02.777Z,28.20
2018-05-21T13:19:30.341Z,28.10
2018-05-21T13:21:57.896Z,28.50
2018-05-21T13:24:26.258Z,28.40
2018-05-21T13:26:54.564Z,28.50
2018-05-21T13:29:22.935Z,28.70
2018-05-21T13:31:51.264Z,28.80
2018-05-21T13:34:18.830Z,28.80
2018-05-21T13:36:47.173Z,29.00
2018-05-21T13:39:15.506Z,28.70
2018-05-21T13:41:43.073Z,28.60
2018-05-21T13:44:10.647Z,28.60
2018-05-21T13:46:38.998Z,28.80
2018-05-21T13:49:06.573Z,28.80
2018-05-21T13:51:34.144Z,28.80
2018-05-21T13:54:01.694Z,28.90
2018-05-21T13:56:29.291Z,28.90
2018-05-21T13:58:56.968Z,29.00
2018-05-21T14:01:25.314Z,28.30
2018-05-21T14:03:53.630Z,28.20
2018-05-21T14:06:21.242Z,28.10
2018-05-21T14:08:48.969Z,28.10
2018-05-21T14:11:17.346Z,28.30
2018-05-21T14:13:44.907Z,28.30
2018-05-21T14:16:12.545Z,28.50
2018-05-21T14:18:40.122Z,28.70
2018-05-21T14:21:07.683Z,28.90
2018-05-21T14:23:35.257Z,29.10
2018-05-21T14:26:02.854Z,28.80
2018-05-21T14:28:31.247Z,28.40
2018-05-21T14:30:58.849Z,28.50
2018-05-21T14:33:26.426Z,28.40
2018-05-21T14:35:53.999Z,28.20
2018-05-21T14:38:21.544Z,28.50
2018-05-21T14:40:49.129Z,28.40
2018-05-21T14:43:17.499Z,28.10
2018-05-21T14:45:45.066Z,28.10
2018-05-21T14:48:13.407Z,27.80
2018-05-21T14:50:40.990Z,27.90
2018-05-21T14:53:08.563Z,27.60
2018-05-21T14:55:36.911Z,27.10
2018-05-21T14:58:04.476Z,27.10
2018-05-21T15:00:32.066Z,26.90
2018-05-21T15:02:59.677Z,26.90
2018-05-21T15:05:27.230Z,26.80
2018-05-21T15:07:54.805Z,26.70
2018-05-21T15:10:22.359Z,26.50
2018-05-21T15:12:51.306Z,26.70
2018-05-21T15:15:19.696Z,26.80
2018-05-21T15:17:47.289Z,26.80
2018-05-21T15:20:14.841Z,26.90
2018-05-21T15:22:42.419Z,26.90
2018-05-21T15:25:09.963Z,26.90
2018-05-21T15:27:37.535Z,26.90
2018-05-21T15:30:05.097Z,27.00
2018-05-21T15:32:32.665Z,26.90
2018-05-21T15:35:00.251Z,26.90
2018-05-21T15:37:28.581Z,26.90
2018-05-21T15:39:56.148Z,26.90
2018-05-21T15:42:24.509Z,26.50
2018-05-21T15:44:52.076Z,26.50
2018-05-21T15:47:19.661Z,26.30
2018-05-21T15:49:47.200Z,26.20
2018-05-21T15:52:14.803Z,26.10
2018-05-21T15:54:42.377Z,26.10
2018-05-21T15:57:10.725Z,25.80
2018-05-21T15:59:38.289Z,25.70
2018-05-21T16:02:05.895Z,25.60
2018-05-21T16:04:33.461Z,25.40
2018-05-21T16:07:01.054Z,25.50
2018-05-21T16:09:28.623Z,25.10
2018-05-21T16:11:56.211Z,25.00
2018-05-21T16:14:23.759Z,24.90
2018-05-21T16:16:51.322Z,25.20
2018-05-21T16:19:19.666Z,25.90
2018-05-21T16:21:47.230Z,25.90
2018-05-21T16:24:14.829Z,25.90
2018-05-21T16:26:43.175Z,26.30
2018-05-21T16:29:10.727Z,26.20
2018-05-21T16:31:38.264Z,26.30
2018-05-21T16:34:05.867Z,26.30
2018-05-21T16:36:33.439Z,26.30
2018-05-21T16:39:01.796Z,25.70
2018-05-21T16:41:29.433Z,25.70
2018-05-21T16:43:57.016Z,25.20
2018-05-21T16:46:24.595Z,25.20
2018-05-21T16:48:52.178Z,25.20
2018-05-21T16:51:19.724Z,24.90
2018-05-21T16:53:47.322Z,25.00
2018-05-21T16:56:15.660Z,24.80
2018-05-21T16:58:43.240Z,24.80
2018-05-21T17:01:10.816Z,25.10
2018-05-21T17:03:38.396Z,25.60
2018-05-21T17:06:06.735Z,26.30
2018-05-21T17:08:34.319Z,26.30
2018-05-21T17:11:01.944Z,26.20
2018-05-21T17:13:30.283Z,26.50
2018-05-21T17:15:58.673Z,26.60
2018-05-21T17:18:26.287Z,26.50
2018-05-21T17:20:53.890Z,26.80
2018-05-21T17:23:21.467Z,27.00
2018-05-21T17:25:49.030Z,27.20
2018-05-21T17:28:16.654Z,27.60
2018-05-21T17:30:44.232Z,27.50
2018-05-21T17:33:12.601Z,27.30
2018-05-21T17:35:40.198Z,27.40
2018-05-21T17:38:08.499Z,27.80
2018-05-21T17:40:36.046Z,27.80
2018-05-21T17:43:03.641Z,27.90
2018-05-21T17:45:32.018Z,27.80
2018-05-21T17:47:59.583Z,27.80
2018-05-21T17:50:27.161Z,27.80
2018-05-21T17:52:54.734Z,28.00
2018-05-21T17:55:22.328Z,28.40
2018-05-21T17:57:49.889Z,28.50
2018-05-21T18:00:17.480Z,28.80
2018-05-21T18:02:45.056Z,29.00
2018-05-21T18:05:13.419Z,29.40
2018-05-21T18:07:40.984Z,29.40
2018-05-21T18:10:08.566Z,29.60
2018-05-21T18:12:36.138Z,29.50
2018-05-21T18:15:03.704Z,29.10
2018-05-21T18:17:32.022Z,28.60
2018-05-21T18:19:59.602Z,28.50
2018-05-21T18:22:27.170Z,28.00
2018-05-21T18:24:55.540Z,26.40
2018-05-21T18:27:23.083Z,26.40
2018-05-21T18:29:50.668Z,25.30
2018-05-21T18:32:18.217Z,24.70
2018-05-21T18:34:46.576Z,23.60
2018-05-21T18:37:14.127Z,23.50
2018-05-21T18:39:41.719Z,23.20
2018-05-21T18:42:09.291Z,22.80
2018-05-21T18:44:38.344Z,22.60
2018-05-21T18:47:05.920Z,22.40
2018-05-21T18:49:33.496Z,22.20
2018-05-21T18:52:01.831Z,21.60
2018-05-21T18:54:29.419Z,21.60
2018-05-21T18:56:56.974Z,21.40
2018-05-21T18:59:24.539Z,21.20
2018-05-21T19:01:52.092Z,21.00
2018-05-21T19:04:19.674Z,20.90
2018-05-21T19:06:47.218Z,20.60
2018-05-21T19:09:14.797Z,20.50
2018-05-21T19:11:42.358Z,20.30
2018-05-21T19:14:10.676Z,20.10
2018-05-21T19:16:38.287Z,20.10
2018-05-21T19:19:05.836Z,20.00
2018-05-21T19:21:33.417Z,19.80
2018-05-21T19:24:01.755Z,19.70
2018-05-21T19:26:29.340Z,19.60
2018-05-21T19:28:56.901Z,19.60
2018-05-21T19:31:25.244Z,19.60
2018-05-21T19:33:52.815Z,19.60
2018-05-21T19:36:20.390Z,19.70
2018-05-21T19:38:47.953Z,19.70
2018-05-21T19:41:15.547Z,19.70
2018-05-21T19:43:43.103Z,19.70
2018-05-21T19:46:10.698Z,19.70
2018-05-21T19:48:39.031Z,19.70
2018-05-21T19:51:06.641Z,19.70
2018-05-21T19:53:34.183Z,19.60
2018-05-21T19:56:01.800Z,19.40
2018-05-21T19:58:29.357Z,19.20
2018-05-21T20:00:57.695Z,19.00
2018-05-21T20:03:26.006Z,18.90
2018-05-21T20:05:53.575Z,18.90
2018-05-21T20:08:21.921Z,18.90
2018-05-21T20:10:49.526Z,18.80
2018-05-21T20:13:17.086Z,18.90
2018-05-21T20:15:44.686Z,18.80
2018-05-21T20:18:13.035Z,18.60
2018-05-21T20:20:41.456Z,18.60
2018-05-21T20:23:09.036Z,18.40
2018-05-21T20:25:36.597Z,18.20
2018-05-21T20:28:04.137Z,18.10
2018-05-21T20:30:31.697Z,17.90
2018-05-21T20:32:59.241Z,17.90
2018-05-21T20:35:26.863Z,17.80
2018-05-21T20:37:54.411Z,17.90
2018-05-21T20:40:22.782Z,18.00
2018-05-21T20:42:50.339Z,18.00
2018-05-21T20:45:17.997Z,18.00
2018-05-21T20:47:45.500Z,18.00
2018-05-21T20:50:13.043Z,17.90
2018-05-21T20:52:40.654Z,17.80
2018-05-21T20:55:08.277Z,17.80
2018-05-21T20:57:35.870Z,17.70
2018-05-21T21:00:03.454Z,17.70
2018-05-21T21:02:31.033Z,17.70
2018-05-21T21:04:58.619Z,17.60
2018-05-21T21:07:26.220Z,17.60
2018-05-21T21:09:53.757Z,17.40
2018-05-21T21:12:22.083Z,17.40
2018-05-21T21:14:49.642Z,17.30
2018-05-21T21:17:17.237Z,17.40
2018-05-21T21:19:44.809Z,17.10
2018-05-21T21:22:13.155Z,16.90
2018-05-21T21:24:41.507Z,16.90
2018-05-21T21:27:09.071Z,16.90
2018-05-21T21:29:36.638Z,17.00
2018-05-21T21:32:04.217Z,17.10
2018-05-21T21:34:31.767Z,17.10
2018-05-21T21:36:59.348Z,17.20
2018-05-21T21:39:26.909Z,17.20
2018-05-21T21:41:54.471Z,17.10
2018-05-21T21:44:22.015Z,17.10
2018-05-21T21:46:49.586Z,17.10
2018-05-21T21:49:17.154Z,17.10
2018-05-21T21:51:45.481Z,17.00
2018-05-21T21:54:13.028Z,17.00
2018-05-21T21:56:40.602Z,17.10
2018-05-21T21:59:08.177Z,17.10
2018-05-21T22:01:35.747Z,17.00
2018-05-21T22:04:03.303Z,17.00
2018-05-21T22:06:30.870Z,17.00
2018-05-21T22:08:58.445Z,17.00
2018-05-21T22:11:26.001Z,16.90
2018-05-21T22:13:53.570Z,16.80
2018-05-21T22:16:21.924Z,16.70
2018-05-21T22:18:49.508Z,16.70
2018-05-21T22:21:17.837Z,16.60
2018-05-21T22:23:45.410Z,16.60
2018-05-21T22:26:12.980Z,16.50
2018-05-21T22:28:40.572Z,16.50
2018-05-21T22:31:08.900Z,16.50
2018-05-21T22:33:36.481Z,16.40
2018-05-21T22:36:04.042Z,16.50
2018-05-21T22:38:31.603Z,16.40
2018-05-21T22:40:59.145Z,16.40
2018-05-21T22:43:26.737Z,16.30
2018-05-21T22:45:54.269Z,16.30
2018-05-21T22:48:21.834Z,16.20
2018-05-21T22:50:49.385Z,16.10
2018-05-21T22:53:16.950Z,16.00
2018-05-21T22:55:44.504Z,15.90
2018-05-21T22:58:12.061Z,15.70
2018-05-21T23:00:39.603Z,15.60
2018-05-21T23:03:07.169Z,15.40
2018-05-21T23:05:34.746Z,15.30
2018-05-21T23:08:02.325Z,15.20
2018-05-21T23:10:29.877Z,15.10
2018-05-21T23:12:57.455Z,15.00
2018-05-21T23:15:25.802Z,14.70
2018-05-21T23:17:53.403Z,14.70
2018-05-21T23:20:21.735Z,14.60
2018-05-21T23:22:49.321Z,14.60
2018-05-21T23:25:16.861Z,14.60
2018-05-21T23:27:44.458Z,14.50
2018-05-21T23:30:12.768Z,14.50
2018-05-21T23:32:40.344Z,14.50
2018-05-21T23:35:07.889Z,14.50
2018-05-21T23:37:35.463Z,14.60
2018-05-21T23:40:03.018Z,14.60
2018-05-21T23:42:30.582Z,14.60
2018-05-21T23:44:58.134Z,14.50
2018-05-21T23:47:25.703Z,14.50
2018-05-21T23:49:53.257Z,14.40
2018-05-21T23:52:20.836Z,14.40
2018-05-21T23:54:48.379Z,14.40
2018-05-21T23:57:15.948Z,14.40
2018-05-21T23:59:43.522Z,14.40
